Fremont, MI

2:45 AM EDT on October 22, 2019 (GMT -0400)
Fremont

Weather History for KFFX - September, 2019

Change the Weather History Date:

Tuesday, September 17, 2019

  Actual Average (KMKG) Record (KMKG)
Temperature  
Mean Temperature 68 °F -  
Max Temperature 77 °F 70 °F 88 °F (1955)
Min Temperature 60 °F 52 °F 36 °F (1959)
Cooling Degree Days 4    
Growing Degree Days 18 (Base 50)    
Moisture  
Dew Point 57 °F    
Average Humidity 77    
Maximum Humidity 97    
Minimum Humidity 39    
Precipitation  
Precipitation 0.00 in - - ()
Sea Level Pressure  
Sea Level Pressure 30.19 in    
Wind  
Wind Speed 4 mph ()    
Max Wind Speed 8 mph    
Max Gust Speed -    
Visibility 8.8 miles    
Events      
Averages and records for this station are not official NWS values.
T = Trace of Precipitation, MM = Missing Value Source: Averaged Metar Reports

Daily Weather History Graph

Daily Weather History Graph

Search for Another Location

Airport or City:

Astronomy

Sep. 17, 2019 Rise Set
Actual Time 7:25 AM EDT 7:50 PM EDT
Civil Twilight 6:56 AM EDT 8:19 PM EDT
Nautical Twilight 6:22 AM EDT 8:53 PM EDT
Astronomical Twilight 5:48 AM EDT 9:27 PM EDT
Moon 9:48 PM EDT (9/17) 10:33 AM EDT (9/17)
Length of Visible Light 13h 22m
Length of Day
12h 25m
Waning Gibbous, 89% of the Moon is Illuminated
Sep 17
Waning Gibbous
Sep 21
Last Quarter
Sep 28
New
Oct 5
First Quarter
Oct 13
Full

Hourly Weather History & Observations

Time (EDT) Temp. Dew Point Humidity Pressure Visibility Wind Dir Wind Speed Gust Speed Precip Events Conditions
12:15 AM 62.8 °F 61.9 °F 97% 30.15 in 10.0 mi Calm Calm - N/A   Clear
12:35 AM 61.7 °F 60.6 °F 96% 30.15 in 10.0 mi Calm Calm - N/A   Clear
12:55 AM 62.4 °F 61.2 °F 96% 30.16 in 10.0 mi ENE 4.6 mph - N/A   Clear
1:00 AM 63.0 °F 61.7 °F 96% 30.16 in 10.0 mi East 4.6 mph - N/A   Clear
1:18 AM 63.9 °F 61.7 °F 93% 30.15 in 10.0 mi East 8.1 mph - N/A   Clear
1:36 AM 63.1 °F 61.3 °F 94% 30.16 in 10.0 mi East 4.6 mph - N/A   Clear
1:55 AM 62.6 °F 61.2 °F 95% 30.17 in 10.0 mi East 3.5 mph - N/A   Clear
1:56 AM 62.6 °F 61.2 °F 95% 30.17 in 10.0 mi East 3.5 mph - N/A   Clear
2:15 AM 62.4 °F 60.8 °F 94% 30.17 in 10.0 mi ESE 3.5 mph - N/A   Clear
2:39 AM 61.9 °F 60.6 °F 96% 30.17 in 10.0 mi East 3.5 mph - N/A   Clear
2:57 AM 61.7 °F 60.4 °F 96% 30.17 in 10.0 mi ESE 4.6 mph - N/A   Clear
3:15 AM 61.3 °F 59.9 °F 95% 30.17 in 10.0 mi ESE 3.5 mph - N/A   Clear
3:16 AM 61.2 °F 59.9 °F 96% 30.17 in 10.0 mi ESE 3.5 mph - N/A   Clear
3:35 AM 60.8 °F 59.4 °F 95% 30.17 in 10.0 mi East 3.5 mph - N/A   Clear
3:55 AM 60.8 °F 59.5 °F 96% 30.17 in 10.0 mi ESE 3.5 mph - N/A   Clear
4:18 AM 60.8 °F 59.4 °F 95% 30.17 in 10.0 mi ESE 4.6 mph - N/A   Clear
4:35 AM 60.3 °F 59.2 °F 96% 30.18 in 10.0 mi East 4.6 mph - N/A   Clear
4:55 AM 60.3 °F 59.2 °F 96% 30.18 in 10.0 mi East 4.6 mph - N/A   Mostly Cloudy
4:56 AM 60.3 °F 59.2 °F 96% 30.18 in 10.0 mi East 4.6 mph - N/A   Mostly Cloudy
5:15 AM 60.6 °F 59.4 °F 96% 30.18 in 10.0 mi ESE 4.6 mph - N/A   Overcast
5:39 AM 60.4 °F 59.2 °F 96% 30.18 in 10.0 mi ESE 4.6 mph - N/A   Overcast
5:57 AM 60.8 °F 59.4 °F 95% 30.19 in 7.0 mi ESE 3.5 mph - N/A   Overcast
6:15 AM 60.8 °F 59.4 °F 95% 30.19 in 7.0 mi ESE 4.6 mph - N/A   Overcast
6:36 AM 60.8 °F 59.4 °F 95% 30.20 in 7.0 mi East 4.6 mph - N/A   Overcast
6:55 AM 60.8 °F 59.2 °F 94% 30.21 in 10.0 mi ESE 4.6 mph - N/A   Overcast
7:00 AM 60.8 °F 59.2 °F 94% 30.21 in 10.0 mi ESE 3.5 mph - N/A   Overcast
7:18 AM 60.8 °F 59.4 °F 95% 30.22 in 10.0 mi ESE 3.5 mph - N/A   Overcast
7:36 AM 60.8 °F 59.7 °F 96% 30.22 in 5.0 mi ESE 3.5 mph - N/A   Overcast
7:55 AM 60.8 °F 59.9 °F 97% 30.23 in 1.8 mi ESE 3.5 mph - N/A   Overcast
8:15 AM 61.0 °F 59.9 °F 96% 30.23 in 1.0 mi East 5.8 mph - N/A   Overcast
8:16 AM 61.0 °F 59.9 °F 96% 30.23 in 1.0 mi East 5.8 mph - N/A   Overcast
8:39 AM 61.0 °F 59.5 °F 95% 30.23 in 0.8 mi ESE 4.6 mph - N/A   Overcast
8:57 AM 61.2 °F 59.5 °F 94% 30.24 in 0.8 mi ESE 4.6 mph - N/A   Overcast
9:15 AM 61.0 °F 59.7 °F 96% 30.23 in 1.2 mi ESE 4.6 mph - N/A   Overcast
9:35 AM 61.0 °F 59.7 °F 96% 30.23 in 1.0 mi ESE 4.6 mph - N/A   Overcast
9:55 AM 61.2 °F 59.9 °F 96% 30.24 in 2.0 mi ESE 5.8 mph - N/A   Overcast
10:17 AM 61.7 °F 60.3 °F 95% 30.24 in 2.5 mi East 6.9 mph - N/A   Overcast
10:35 AM 61.5 °F 60.4 °F 96% 30.23 in 4.0 mi ENE 5.8 mph - N/A   Overcast
10:55 AM 61.9 °F 60.8 °F 96% 30.23 in 5.0 mi Calm Calm - N/A   Overcast
10:56 AM 61.7 °F 60.6 °F 96% 30.23 in 5.0 mi ESE 3.5 mph - N/A   Overcast
11:15 AM 63.3 °F 61.0 °F 92% 30.23 in 10.0 mi SE 6.9 mph - N/A   Overcast
11:20 AM 63.7 °F 60.6 °F 90% 30.22 in 10.0 mi ESE 3.5 mph - N/A   Overcast
11:38 AM 64.4 °F 60.6 °F 88% 30.22 in 10.0 mi SE 5.8 mph - N/A   Overcast
11:56 AM 67.1 °F 59.4 °F 76% 30.22 in 10.0 mi ESE 5.8 mph - N/A   Mostly Cloudy
12:15 PM 68.4 °F 56.7 °F 66% 30.22 in 10.0 mi ESE 5.8 mph - N/A   Scattered Clouds
12:35 PM 69.8 °F 55.6 °F 61% 30.21 in 10.0 mi SSE 4.6 mph - N/A   Scattered Clouds
12:59 PM 71.6 °F 54.7 °F 55% 30.21 in 10.0 mi ESE 5.8 mph - N/A   Clear
1:17 PM 72.5 °F 53.6 °F 51% 30.20 in 10.0 mi ESE 5.8 mph - N/A   Clear
1:35 PM 72.7 °F 53.4 °F 51% 30.21 in 10.0 mi Calm Calm - N/A   Clear
1:36 PM 72.7 °F 53.4 °F 51% 30.21 in 10.0 mi Calm Calm - N/A   Clear
1:55 PM 73.6 °F 52.9 °F 48% 30.20 in 10.0 mi Calm Calm - N/A   Clear
1:56 PM 73.8 °F 52.9 °F 48% 30.20 in 10.0 mi Calm Calm - N/A   Clear
2:15 PM 74.3 °F 52.0 °F 46% 30.20 in 10.0 mi Calm Calm - N/A   Clear
2:20 PM 74.3 °F 52.0 °F 46% 30.20 in 10.0 mi East 5.8 mph - N/A   Clear
2:38 PM 75.9 °F 53.1 °F 45% 30.20 in 10.0 mi East 6.9 mph - N/A   Clear
2:56 PM 75.6 °F 52.0 °F 44% 30.19 in 10.0 mi East 3.5 mph - N/A   Clear
3:15 PM 75.7 °F 52.7 °F 45% 30.19 in 10.0 mi East 4.6 mph - N/A   Clear
3:35 PM 76.1 °F 50.9 °F 41% 30.18 in 10.0 mi East 5.8 mph - N/A   Clear
3:36 PM 75.9 °F 50.5 °F 41% 30.18 in 10.0 mi East 6.9 mph - N/A   Clear
3:59 PM 76.3 °F 50.0 °F 40% 30.18 in 10.0 mi ESE 5.8 mph - N/A   Clear
4:17 PM 76.8 °F 51.4 °F 41% 30.17 in 10.0 mi SE 4.6 mph - N/A   Clear
4:35 PM 77.0 °F 51.6 °F 41% 30.17 in 10.0 mi SE 4.6 mph - N/A   Clear
4:55 PM 76.5 °F 52.2 °F 43% 30.16 in 10.0 mi SE 8.1 mph - N/A   Clear
5:15 PM 76.5 °F 50.7 °F 40% 30.16 in 10.0 mi SE 8.1 mph - N/A   Clear
5:20 PM 76.3 °F 50.5 °F 40% 30.15 in 10.0 mi ESE 6.9 mph - N/A   Clear
5:38 PM 75.9 °F 50.0 °F 40% 30.16 in 10.0 mi ESE 4.6 mph - N/A   Clear
5:55 PM 75.4 °F 49.1 °F 39% 30.16 in 7.0 mi SE 8.1 mph - N/A   Clear
6:15 PM 74.7 °F 51.4 °F 44% 30.16 in 10.0 mi ESE 5.8 mph - N/A   Clear
6:35 PM 73.8 °F 51.8 °F 46% 30.16 in 10.0 mi ESE 5.8 mph - N/A   Clear
6:59 PM 71.6 °F 53.6 °F 53% 30.16 in 10.0 mi ESE 5.8 mph - N/A   Clear
7:17 PM 70.0 °F 53.8 °F 56% 30.15 in 10.0 mi SE 3.5 mph - N/A   Clear
7:35 PM 68.9 °F 54.7 °F 60% 30.15 in 10.0 mi Calm Calm - N/A   Clear
7:36 PM 68.9 °F 54.7 °F 60% 30.15 in 10.0 mi SE 3.5 mph - N/A   Clear
7:55 PM 67.6 °F 55.2 °F 64% 30.15 in 10.0 mi ESE 5.8 mph - N/A   Clear
7:56 PM 67.5 °F 55.4 °F 65% 30.15 in 10.0 mi ESE 4.6 mph - N/A   Clear
8:15 PM 66.9 °F 55.0 °F 66% 30.16 in 10.0 mi ESE 4.6 mph - N/A   Clear
8:20 PM 66.6 °F 55.2 °F 67% 30.16 in 10.0 mi ESE 4.6 mph - N/A   Clear
8:38 PM 65.8 °F 55.4 °F 69% 30.16 in 10.0 mi ESE 4.6 mph - N/A   Clear
8:56 PM 65.3 °F 57.0 °F 75% 30.16 in 10.0 mi ESE 4.6 mph - N/A   Clear
9:15 PM 64.4 °F 59.9 °F 85% 30.17 in 10.0 mi Calm Calm - N/A   Clear
9:35 PM 63.3 °F 59.5 °F 87% 30.17 in 10.0 mi East 3.5 mph - N/A   Clear
9:36 PM 63.3 °F 59.5 °F 87% 30.17 in 10.0 mi Calm Calm - N/A   Clear
9:59 PM 63.0 °F 59.7 °F 89% 30.18 in 10.0 mi Calm Calm - N/A   Clear
10:17 PM 62.6 °F 59.5 °F 90% 30.18 in 10.0 mi Calm Calm - N/A   Clear
10:35 PM 61.7 °F 59.9 °F 94% 30.18 in 10.0 mi Calm Calm - N/A   Clear
10:55 PM 61.3 °F 59.5 °F 94% 30.18 in 10.0 mi Calm Calm - N/A   Clear
10:56 PM 61.3 °F 59.5 °F 94% 30.18 in 10.0 mi Calm Calm - N/A   Clear
11:15 PM 61.2 °F 59.5 °F 94% 30.18 in 10.0 mi Calm Calm - N/A   Clear
11:20 PM 61.0 °F 59.4 °F 94% 30.18 in 10.0 mi East 3.5 mph - N/A   Clear
11:38 PM 61.3 °F 59.5 °F 94% 30.18 in 10.0 mi East 3.5 mph - N/A   Clear
11:56 PM 61.2 °F 59.2 °F 93% 30.18 in 10.0 mi East 3.5 mph - N/A   Clear